sensor_id;sensor_type;location;lat;lon;timestamp;pressure;altitude;pressure_sealevel;temperature;humidity
46015;BME280;36844;51.898;-0.874;2023-09-19T00:00:45;99522.22;;;19.98;
46015;BME280;36844;51.898;-0.874;2023-09-19T00:03:12;99542.34;;;19.97;
46015;BME280;36844;51.898;-0.874;2023-09-19T00:05:39;99550.47;;;19.97;
46015;BME280;36844;51.898;-0.874;2023-09-19T00:08:05;99540.94;;;19.92;
46015;BME280;36844;51.898;-0.874;2023-09-19T00:10:31;99551.63;;;19.96;
46015;BME280;36844;51.898;-0.874;2023-09-19T00:13:00;99553.56;;;19.95;
46015;BME280;36844;51.898;-0.874;2023-09-19T00:15:31;99539.28;;;19.82;
46015;BME280;36844;51.898;-0.874;2023-09-19T00:18:00;99560.91;;;19.95;
46015;BME280;36844;51.898;-0.874;2023-09-19T00:20:26;99557.69;;;19.87;
46015;BME280;36844;51.898;-0.874;2023-09-19T00:22:51;99566.03;;;19.93;
46015;BME280;36844;51.898;-0.874;2023-09-19T00:25:17;99557.34;;;19.85;
46015;BME280;36844;51.898;-0.874;2023-09-19T00:27:43;99578.75;;;19.92;
46015;BME280;36844;51.898;-0.874;2023-09-19T00:30:11;99576.72;;;19.84;
46015;BME280;36844;51.898;-0.874;2023-09-19T00:32:45;99579.94;;;19.91;
46015;BME280;36844;51.898;-0.874;2023-09-19T00:35:13;99563.53;;;19.86;
46015;BME280;36844;51.898;-0.874;2023-09-19T00:37:39;99577.34;;;19.88;
46015;BME280;36844;51.898;-0.874;2023-09-19T00:40:06;99572.47;;;19.83;
46015;BME280;36844;51.898;-0.874;2023-09-19T00:42:32;99574.22;;;19.89;
46015;BME280;36844;51.898;-0.874;2023-09-19T00:44:59;99575.59;;;19.81;
46015;BME280;36844;51.898;-0.874;2023-09-19T00:47:24;99586.31;;;19.85;
46015;BME280;36844;51.898;-0.874;2023-09-19T00:49:50;99565.34;;;19.76;
46015;BME280;36844;51.898;-0.874;2023-09-19T00:52:17;99568.03;;;19.76;
46015;BME280;36844;51.898;-0.874;2023-09-19T00:54:46;99562.09;;;19.81;
46015;BME280;36844;51.898;-0.874;2023-09-19T00:57:12;99558.41;;;19.75;
46015;BME280;36844;51.898;-0.874;2023-09-19T00:59:37;99566.78;;;19.81;
46015;BME280;36844;51.898;-0.874;2023-09-19T01:02:03;99549.34;;;19.69;
46015;BME280;36844;51.898;-0.874;2023-09-19T01:04:29;99578.97;;;19.85;
46015;BME280;36844;51.898;-0.874;2023-09-19T01:06:54;99564.47;;;19.79;
46015;BME280;36844;51.898;-0.874;2023-09-19T01:09:20;99557.00;;;19.70;
46015;BME280;36844;51.898;-0.874;2023-09-19T01:11:48;99569.78;;;19.83;
46015;BME280;36844;51.898;-0.874;2023-09-19T01:14:33;99562.88;;;19.82;
46015;BME280;36844;51.898;-0.874;2023-09-19T01:17:12;99565.25;;;19.79;
46015;BME280;36844;51.898;-0.874;2023-09-19T01:22:28;99553.22;;;19.68;
46015;BME280;36844;51.898;-0.874;2023-09-19T01:30:46;99547.41;;;19.69;
46015;BME280;36844;51.898;-0.874;2023-09-19T01:33:12;99553.22;;;19.68;
46015;BME280;36844;51.898;-0.874;2023-09-19T01:35:40;99565.34;;;19.76;
46015;BME280;36844;51.898;-0.874;2023-09-19T01:38:08;99549.34;;;19.69;
46015;BME280;36844;51.898;-0.874;2023-09-19T01:40:41;99563.03;;;19.74;
46015;BME280;36844;51.898;-0.874;2023-09-19T01:43:26;99557.63;;;19.74;
46015;BME280;36844;51.898;-0.874;2023-09-19T01:46:12;99558.50;;;19.71;
46015;BME280;36844;51.898;-0.874;2023-09-19T01:49:08;99555.16;;;19.67;
46015;BME280;36844;51.898;-0.874;2023-09-19T01:52:10;99547.41;;;19.69;
46015;BME280;36844;51.898;-0.874;2023-09-19T01:54:46;99551.28;;;19.68;
46015;BME280;36844;51.898;-0.874;2023-09-19T01:57:28;99547.91;;;19.64;
46015;BME280;36844;51.898;-0.874;2023-09-19T02:00:04;99536.66;;;19.53;
46015;BME280;36844;51.898;-0.874;2023-09-19T02:02:35;99546.50;;;19.60;
46015;BME280;36844;51.898;-0.874;2023-09-19T02:05:01;99544.25;;;19.58;
46015;BME280;36844;51.898;-0.874;2023-09-19T02:07:27;99540.78;;;19.58;
46015;BME280;36844;51.898;-0.874;2023-09-19T02:09:52;99541.97;;;19.57;
46015;BME280;36844;51.898;-0.874;2023-09-19T02:12:17;99548.78;;;19.61;
46015;BME280;36844;51.898;-0.874;2023-09-19T02:14:43;99546.16;;;19.58;
46015;BME280;36844;51.898;-0.874;2023-09-19T02:17:08;99543.47;;;19.58;
46015;BME280;36844;51.898;-0.874;2023-09-19T02:19:36;99538.72;;;19.62;
46015;BME280;36844;51.898;-0.874;2023-09-19T02:22:04;99528.78;;;19.59;
46015;BME280;36844;51.898;-0.874;2023-09-19T02:24:33;99518.59;;;19.50;
46015;BME280;36844;51.898;-0.874;2023-09-19T02:26:58;99492.53;;;19.31;
46015;BME280;36844;51.898;-0.874;2023-09-19T02:29:24;99521.63;;;19.52;
46015;BME280;36844;51.898;-0.874;2023-09-19T02:31:50;99533.44;;;19.58;
46015;BME280;36844;51.898;-0.874;2023-09-19T02:34:15;99535.16;;;19.65;
46015;BME280;36844;51.898;-0.874;2023-09-19T02:36:41;99505.94;;;19.47;
46015;BME280;36844;51.898;-0.874;2023-09-19T02:39:09;99504.47;;;19.46;
46015;BME280;36844;51.898;-0.874;2023-09-19T02:41:36;99509.97;;;19.55;
46015;BME280;36844;51.898;-0.874;2023-09-19T02:44:01;99520.59;;;19.62;
46015;BME280;36844;51.898;-0.874;2023-09-19T02:46:27;99509.31;;;19.51;
46015;BME280;36844;51.898;-0.874;2023-09-19T02:48:53;99523.81;;;19.57;
46015;BME280;36844;51.898;-0.874;2023-09-19T02:51:20;99529.19;;;19.57;
46015;BME280;36844;51.898;-0.874;2023-09-19T02:53:45;99525.50;;;19.51;
46015;BME280;36844;51.898;-0.874;2023-09-19T02:56:12;99524.66;;;19.54;
46015;BME280;36844;51.898;-0.874;2023-09-19T02:58:38;99525.50;;;19.51;
46015;BME280;36844;51.898;-0.874;2023-09-19T03:01:09;99522.69;;;19.55;
46015;BME280;36844;51.898;-0.874;2023-09-19T03:03:34;99514.69;;;19.51;
46015;BME280;36844;51.898;-0.874;2023-09-19T03:06:00;99514.28;;;19.53;
46015;BME280;36844;51.898;-0.874;2023-09-19T03:08:28;99524.66;;;19.54;
46015;BME280;36844;51.898;-0.874;2023-09-19T03:10:53;99502.16;;;19.45;
46015;BME280;36844;51.898;-0.874;2023-09-19T03:13:18;99503.59;;;19.49;
46015;BME280;36844;51.898;-0.874;2023-09-19T03:15:45;99510.28;;;19.57;
46015;BME280;36844;51.898;-0.874;2023-09-19T03:18:12;99513.19;;;19.50;
46015;BME280;36844;51.898;-0.874;2023-09-19T03:20:38;99500.53;;;19.47;
46015;BME280;36844;51.898;-0.874;2023-09-19T03:23:04;99480.00;;;19.37;
46015;BME280;36844;51.898;-0.874;2023-09-19T03:25:31;99490.41;;;19.51;
46015;BME280;36844;51.898;-0.874;2023-09-19T03:27:56;99492.78;;;19.49;
46015;BME280;36844;51.898;-0.874;2023-09-19T03:30:23;99490.59;;;19.44;
46015;BME280;36844;51.898;-0.874;2023-09-19T03:32:49;99496.47;;;19.55;
46015;BME280;36844;51.898;-0.874;2023-09-19T03:35:16;99475.94;;;19.45;
46015;BME280;36844;51.898;-0.874;2023-09-19T03:37:42;99479.69;;;19.48;
46015;BME280;36844;51.898;-0.874;2023-09-19T03:40:09;99455.41;;;19.35;
46015;BME280;36844;51.898;-0.874;2023-09-19T03:42:40;99459.06;;;19.41;
46015;BME280;36844;51.898;-0.874;2023-09-19T03:45:09;99465.22;;;19.42;
46015;BME280;36844;51.898;-0.874;2023-09-19T03:47:40;99446.66;;;19.31;
46015;BME280;36844;51.898;-0.874;2023-09-19T03:50:06;99460.50;;;19.46;
46015;BME280;36844;51.898;-0.874;2023-09-19T03:52:40;99450.56;;;19.43;
46015;BME280;36844;51.898;-0.874;2023-09-19T03:55:06;99449.88;;;19.51;
46015;BME280;36844;51.898;-0.874;2023-09-19T03:57:31;99409.69;;;19.28;
46015;BME280;36844;51.898;-0.874;2023-09-19T03:59:57;99423.84;;;19.32;
46015;BME280;36844;51.898;-0.874;2023-09-19T04:02:23;99450.75;;;19.48;
46015;BME280;36844;51.898;-0.874;2023-09-19T04:04:53;99442.88;;;19.41;
46015;BME280;36844;51.898;-0.874;2023-09-19T04:07:19;99409.03;;;19.24;
46015;BME280;36844;51.898;-0.874;2023-09-19T04:09:47;99363.09;;;18.99;
46015;BME280;36844;51.898;-0.874;2023-09-19T04:12:14;99436.09;;;19.49;
46015;BME280;36844;51.898;-0.874;2023-09-19T04:14:42;99414.53;;;19.33;
46015;BME280;36844;51.898;-0.874;2023-09-19T04:17:07;99424.72;;;19.42;
46015;BME280;36844;51.898;-0.874;2023-09-19T04:19:33;99385.69;;;19.18;
46015;BME280;36844;51.898;-0.874;2023-09-19T04:21:58;99423.19;;;19.41;
46015;BME280;36844;51.898;-0.874;2023-09-19T04:24:24;99413.81;;;19.33;
46015;BME280;36844;51.898;-0.874;2023-09-19T04:26:49;99445.78;;;19.47;
46015;BME280;36844;51.898;-0.874;2023-09-19T04:29:14;99372.06;;;18.96;
46015;BME280;36844;51.898;-0.874;2023-09-19T04:31:40;99439.41;;;19.41;
46015;BME280;36844;51.898;-0.874;2023-09-19T04:34:08;99417.34;;;19.30;
46015;BME280;36844;51.898;-0.874;2023-09-19T04:36:35;99408.53;;;19.29;
46015;BME280;36844;51.898;-0.874;2023-09-19T04:39:02;99417.78;;;19.41;
46015;BME280;36844;51.898;-0.874;2023-09-19T04:41:30;99408.94;;;19.40;
46015;BME280;36844;51.898;-0.874;2023-09-19T04:43:55;99389.84;;;19.35;
46015;BME280;36844;51.898;-0.874;2023-09-19T04:46:20;99371.81;;;19.19;
46015;BME280;36844;51.898;-0.874;2023-09-19T04:48:46;99404.75;;;19.39;
46015;BME280;36844;51.898;-0.874;2023-09-19T04:51:11;99387.03;;;19.26;
46015;BME280;36844;51.898;-0.874;2023-09-19T04:53:37;99394.25;;;19.29;
46015;BME280;36844;51.898;-0.874;2023-09-19T04:56:02;99396.75;;;19.36;
46015;BME280;36844;51.898;-0.874;2023-09-19T04:58:29;99394.59;;;19.31;
46015;BME280;36844;51.898;-0.874;2023-09-19T05:00:55;99392.94;;;19.21;
46015;BME280;36844;51.898;-0.874;2023-09-19T05:03:21;99391.31;;;19.23;
46015;BME280;36844;51.898;-0.874;2023-09-19T05:05:47;99415.88;;;19.41;
46015;BME280;36844;51.898;-0.874;2023-09-19T05:08:13;99399.44;;;19.36;
46015;BME280;36844;51.898;-0.874;2023-09-19T05:10:39;99404.09;;;19.35;
46015;BME280;36844;51.898;-0.874;2023-09-19T05:13:05;99384.31;;;19.26;
46015;BME280;36844;51.898;-0.874;2023-09-19T05:15:32;99386.16;;;19.29;
46015;BME280;36844;51.898;-0.874;2023-09-19T05:17:57;99391.78;;;19.34;
46015;BME280;36844;51.898;-0.874;2023-09-19T05:20:23;99376.56;;;19.28;
46015;BME280;36844;51.898;-0.874;2023-09-19T05:22:58;99372.88;;;19.22;
46015;BME280;36844;51.898;-0.874;2023-09-19T05:25:28;99360.34;;;19.15;
46015;BME280;36844;51.898;-0.874;2023-09-19T05:27:58;99375.69;;;19.31;
46015;BME280;36844;51.898;-0.874;2023-09-19T05:30:25;99361.84;;;19.16;
46015;BME280;36844;51.898;-0.874;2023-09-19T05:32:52;99378.81;;;19.29;
46015;BME280;36844;51.898;-0.874;2023-09-19T05:35:18;99392.09;;;19.36;
46015;BME280;36844;51.898;-0.874;2023-09-19T05:37:43;99374.28;;;19.26;
46015;BME280;36844;51.898;-0.874;2023-09-19T05:40:09;99363.50;;;19.26;
46015;BME280;36844;51.898;-0.874;2023-09-19T05:42:37;99385.22;;;19.35;
46015;BME280;36844;51.898;-0.874;2023-09-19T05:45:04;99373.09;;;19.27;
46015;BME280;36844;51.898;-0.874;2023-09-19T05:47:31;99359.94;;;19.29;
46015;BME280;36844;51.898;-0.874;2023-09-19T05:49:57;99340.59;;;19.18;
46015;BME280;36844;51.898;-0.874;2023-09-19T05:52:22;99333.81;;;19.26;
46015;BME280;36844;51.898;-0.874;2023-09-19T05:54:47;99332.28;;;19.25;
46015;BME280;36844;51.898;-0.874;2023-09-19T05:57:14;99327.31;;;19.24;
46015;BME280;36844;51.898;-0.874;2023-09-19T05:59:40;99330.84;;;19.33;
46015;BME280;36844;51.898;-0.874;2023-09-19T06:02:07;99308.53;;;19.20;
46015;BME280;36844;51.898;-0.874;2023-09-19T06:04:35;99325.16;;;19.31;
46015;BME280;36844;51.898;-0.874;2023-09-19T06:07:00;99325.91;;;19.32;
46015;BME280;36844;51.898;-0.874;2023-09-19T06:09:25;99300.09;;;19.18;
46015;BME280;36844;51.898;-0.874;2023-09-19T06:11:53;99317.25;;;19.24;
46015;BME280;36844;51.898;-0.874;2023-09-19T06:14:18;99314.66;;;19.21;
46015;BME280;36844;51.898;-0.874;2023-09-19T06:16:44;99325.16;;;19.31;
46015;BME280;36844;51.898;-0.874;2023-09-19T06:19:10;99307.97;;;19.25;
46015;BME280;36844;51.898;-0.874;2023-09-19T06:21:36;99311.44;;;19.26;
46015;BME280;36844;51.898;-0.874;2023-09-19T06:24:02;99309.38;;;19.30;
46015;BME280;36844;51.898;-0.874;2023-09-19T06:26:28;99270.84;;;19.04;
46015;BME280;36844;51.898;-0.874;2023-09-19T06:28:54;99292.22;;;19.24;
46015;BME280;36844;51.898;-0.874;2023-09-19T06:31:21;99268.16;;;19.04;
46015;BME280;36844;51.898;-0.874;2023-09-19T06:33:48;99278.41;;;19.22;
46015;BME280;36844;51.898;-0.874;2023-09-19T06:36:13;99279.28;;;19.19;
46015;BME280;36844;51.898;-0.874;2023-09-19T06:38:38;99279.47;;;19.24;
46015;BME280;36844;51.898;-0.874;2023-09-19T06:41:04;99272.56;;;19.23;
46015;BME280;36844;51.898;-0.874;2023-09-19T06:43:31;99282.81;;;19.28;
46015;BME280;36844;51.898;-0.874;2023-09-19T06:45:58;99273.53;;;19.17;
46015;BME280;36844;51.898;-0.874;2023-09-19T06:48:25;99281.31;;;19.27;
46015;BME280;36844;51.898;-0.874;2023-09-19T06:50:53;99267.59;;;19.22;
46015;BME280;36844;51.898;-0.874;2023-09-19T06:53:18;99261.88;;;19.20;
46015;BME280;36844;51.898;-0.874;2023-09-19T06:55:44;99263.38;;;19.21;
46015;BME280;36844;51.898;-0.874;2023-09-19T06:58:10;99254.63;;;19.17;
46015;BME280;36844;51.898;-0.874;2023-09-19T07:00:36;99258.31;;;19.23;
46015;BME280;36844;51.898;-0.874;2023-09-19T07:03:07;99257.13;;;19.24;
46015;BME280;36844;51.898;-0.874;2023-09-19T07:05:34;99196.81;;;18.93;
46015;BME280;36844;51.898;-0.874;2023-09-19T07:08:03;99255.81;;;19.28;
46015;BME280;36844;51.898;-0.874;2023-09-19T07:10:29;99247.41;;;19.26;
46015;BME280;36844;51.898;-0.874;2023-09-19T07:12:58;99234.66;;;19.14;
46015;BME280;36844;51.898;-0.874;2023-09-19T07:15:25;99249.88;;;19.21;
46015;BME280;36844;51.898;-0.874;2023-09-19T07:17:54;99242.09;;;19.23;
46015;BME280;36844;51.898;-0.874;2023-09-19T07:20:21;99223.88;;;19.14;
46015;BME280;36844;51.898;-0.874;2023-09-19T07:22:46;99214.19;;;19.04;
46015;BME280;36844;51.898;-0.874;2023-09-19T07:25:13;99231.88;;;19.18;
46015;BME280;36844;51.898;-0.874;2023-09-19T07:27:40;99220.78;;;19.16;
46015;BME280;36844;51.898;-0.874;2023-09-19T07:30:06;99209.72;;;19.10;
46015;BME280;36844;51.898;-0.874;2023-09-19T07:32:31;99238.97;;;19.24;
46015;BME280;36844;51.898;-0.874;2023-09-19T07:34:56;99242.53;;;19.21;
46015;BME280;36844;51.898;-0.874;2023-09-19T07:37:22;99234.66;;;19.27;
46015;BME280;36844;51.898;-0.874;2023-09-19T07:39:47;99213.72;;;19.18;
46015;BME280;36844;51.898;-0.874;2023-09-19T07:42:12;99226.06;;;19.19;
46015;BME280;36844;51.898;-0.874;2023-09-19T07:44:43;99249.34;;;19.26;
46015;BME280;36844;51.898;-0.874;2023-09-19T07:47:11;99253.44;;;19.30;
46015;BME280;36844;51.898;-0.874;2023-09-19T07:49:37;99224.28;;;19.13;
46015;BME280;36844;51.898;-0.874;2023-09-19T07:52:02;99241.03;;;19.20;
46015;BME280;36844;51.898;-0.874;2023-09-19T07:54:28;99240.72;;;19.18;
46015;BME280;36844;51.898;-0.874;2023-09-19T07:56:55;99249.47;;;19.22;
46015;BME280;36844;51.898;-0.874;2023-09-19T07:59:21;99242.97;;;19.20;
46015;BME280;36844;51.898;-0.874;2023-09-19T08:01:46;99239.97;;;19.18;
46015;BME280;36844;51.898;-0.874;2023-09-19T08:04:13;99263.06;;;19.31;
46015;BME280;36844;51.898;-0.874;2023-09-19T08:06:39;99225.16;;;19.10;
46015;BME280;36844;51.898;-0.874;2023-09-19T08:09:04;99244.72;;;19.26;
46015;BME280;36844;51.898;-0.874;2023-09-19T08:11:33;99249.47;;;19.22;
46015;BME280;36844;51.898;-0.874;2023-09-19T08:13:58;99235.31;;;19.18;
46015;BME280;36844;51.898;-0.874;2023-09-19T08:16:24;99240.63;;;19.22;
46015;BME280;36844;51.898;-0.874;2023-09-19T08:18:49;99224.53;;;19.18;
46015;BME280;36844;51.898;-0.874;2023-09-19T08:21:18;99256.47;;;19.32;
46015;BME280;36844;51.898;-0.874;2023-09-19T08:23:44;99251.06;;;19.32;
46015;BME280;36844;51.898;-0.874;2023-09-19T08:26:09;99231.44;;;19.19;
46015;BME280;36844;51.898;-0.874;2023-09-19T08:28:35;99249.88;;;19.33;
46015;BME280;36844;51.898;-0.874;2023-09-19T08:31:04;99238.25;;;19.24;
46015;BME280;36844;51.898;-0.874;2023-09-19T08:33:34;99212.97;;;19.18;
46015;BME280;36844;51.898;-0.874;2023-09-19T08:36:01;99234.66;;;19.27;
46015;BME280;36844;51.898;-0.874;2023-09-19T08:38:26;99227.88;;;19.22;
46015;BME280;36844;51.898;-0.874;2023-09-19T08:40:58;99227.00;;;19.25;
46015;BME280;36844;51.898;-0.874;2023-09-19T08:43:24;99221.03;;;19.30;
46015;BME280;36844;51.898;-0.874;2023-09-19T08:45:50;99225.81;;;19.26;
46015;BME280;36844;51.898;-0.874;2023-09-19T08:48:28;99203.69;;;19.19;
46015;BME280;36844;51.898;-0.874;2023-09-19T08:51:02;99240.59;;;19.34;
46015;BME280;36844;51.898;-0.874;2023-09-19T08:53:49;99232.50;;;19.34;
46015;BME280;36844;51.898;-0.874;2023-09-19T08:56:17;99224.06;;;19.32;
46015;BME280;36844;51.898;-0.874;2023-09-19T09:01:28;99207.47;;;19.21;
46015;BME280;36844;51.898;-0.874;2023-09-19T09:03:55;99233.25;;;19.35;
46015;BME280;36844;51.898;-0.874;2023-09-19T09:06:21;99221.59;;;19.25;
46015;BME280;36844;51.898;-0.874;2023-09-19T09:08:48;99203.59;;;19.22;
46015;BME280;36844;51.898;-0.874;2023-09-19T09:11:16;99225.44;;;19.37;
46015;BME280;36844;51.898;-0.874;2023-09-19T09:13:43;99180.03;;;19.23;
46015;BME280;36844;51.898;-0.874;2023-09-19T09:16:10;99180.59;;;19.18;
46015;BME280;36844;51.898;-0.874;2023-09-19T09:18:36;99190.63;;;19.17;
46015;BME280;36844;51.898;-0.874;2023-09-19T09:21:02;99203.69;;;19.31;
46015;BME280;36844;51.898;-0.874;2023-09-19T09:23:30;99191.25;;;19.21;
46015;BME280;36844;51.898;-0.874;2023-09-19T09:25:57;99208.19;;;19.34;
46015;BME280;36844;51.898;-0.874;2023-09-19T09:28:29;99208.19;;;19.34;
46015;BME280;36844;51.898;-0.874;2023-09-19T09:30:56;99207.66;;;19.39;
46015;BME280;36844;51.898;-0.874;2023-09-19T09:33:23;99200.41;;;19.36;
46015;BME280;36844;51.898;-0.874;2023-09-19T09:35:56;99224.59;;;19.40;
46015;BME280;36844;51.898;-0.874;2023-09-19T09:38:26;99203.97;;;19.33;
46015;BME280;36844;51.898;-0.874;2023-09-19T09:40:57;99190.09;;;19.22;
46015;BME280;36844;51.898;-0.874;2023-09-19T09:43:39;99223.88;;;19.39;
46015;BME280;36844;51.898;-0.874;2023-09-19T09:46:15;99200.44;;;19.24;
46015;BME280;36844;51.898;-0.874;2023-09-19T09:48:48;99195.25;;;19.29;
46015;BME280;36844;51.898;-0.874;2023-09-19T09:54:29;99207.75;;;19.36;
46015;BME280;36844;51.898;-0.874;2023-09-19T09:57:08;99184.03;;;19.18;
46015;BME280;36844;51.898;-0.874;2023-09-19T09:59:56;99182.00;;;19.22;
46015;BME280;36844;51.898;-0.874;2023-09-19T10:02:41;99189.66;;;19.24;
46015;BME280;36844;51.898;-0.874;2023-09-19T10:05:15;99201.91;;;19.37;
46015;BME280;36844;51.898;-0.874;2023-09-19T10:07:52;99179.78;;;19.30;
46015;BME280;36844;51.898;-0.874;2023-09-19T10:10:38;99198.44;;;19.37;
46015;BME280;36844;51.898;-0.874;2023-09-19T10:13:05;99173.34;;;19.27;
46015;BME280;36844;51.898;-0.874;2023-09-19T10:15:33;99183.56;;;19.32;
46015;BME280;36844;51.898;-0.874;2023-09-19T10:18:04;99201.50;;;19.39;
46015;BME280;36844;51.898;-0.874;2023-09-19T10:20:30;99173.22;;;19.31;
46015;BME280;36844;51.898;-0.874;2023-09-19T10:23:09;99192.19;;;19.40;
46015;BME280;36844;51.898;-0.874;2023-09-19T10:25:38;99190.81;;;19.35;
46015;BME280;36844;51.898;-0.874;2023-09-19T10:28:09;99173.97;;;19.31;
46015;BME280;36844;51.898;-0.874;2023-09-19T10:30:37;99184.09;;;19.40;
46015;BME280;36844;51.898;-0.874;2023-09-19T10:33:07;99161.97;;;19.32;
46015;BME280;36844;51.898;-0.874;2023-09-19T10:35:33;99156.38;;;19.27;
46015;BME280;36844;51.898;-0.874;2023-09-19T10:38:03;99166.19;;;19.33;
46015;BME280;36844;51.898;-0.874;2023-09-19T10:40:32;99171.69;;;19.42;
46015;BME280;36844;51.898;-0.874;2023-09-19T10:43:01;99183.00;;;19.37;
46015;BME280;36844;51.898;-0.874;2023-09-19T10:45:30;99173.09;;;19.34;
46015;BME280;36844;51.898;-0.874;2023-09-19T10:47:57;99151.09;;;19.23;
46015;BME280;36844;51.898;-0.874;2023-09-19T10:50:23;99173.41;;;19.36;
46015;BME280;36844;51.898;-0.874;2023-09-19T10:52:50;99180.06;;;19.44;
46015;BME280;36844;51.898;-0.874;2023-09-19T10:55:25;99160.03;;;19.33;
46015;BME280;36844;51.898;-0.874;2023-09-19T10:57:53;99172.66;;;19.36;
46015;BME280;36844;51.898;-0.874;2023-09-19T11:00:19;99164.13;;;19.37;
46015;BME280;36844;51.898;-0.874;2023-09-19T11:06:01;99172.03;;;19.32;
46015;BME280;36844;51.898;-0.874;2023-09-19T11:08:26;99159.84;;;19.27;
46015;BME280;36844;51.898;-0.874;2023-09-19T11:10:52;99188.94;;;19.45;
46015;BME280;36844;51.898;-0.874;2023-09-19T11:13:28;99158.63;;;19.28;
46015;BME280;36844;51.898;-0.874;2023-09-19T11:26:50;99173.41;;;19.36;
46015;BME280;36844;51.898;-0.874;2023-09-19T11:29:32;99175.44;;;19.45;
46015;BME280;36844;51.898;-0.874;2023-09-19T11:31:58;99182.78;;;19.44;
46015;BME280;36844;51.898;-0.874;2023-09-19T11:39:39;99172.56;;;19.39;
46015;BME280;36844;51.898;-0.874;2023-09-19T11:48:23;99180.66;;;19.39;
46015;BME280;36844;51.898;-0.874;2023-09-19T11:50:51;99173.31;;;19.40;
46015;BME280;36844;51.898;-0.874;2023-09-19T11:53:17;99199.84;;;19.41;
46015;BME280;36844;51.898;-0.874;2023-09-19T11:55:45;99172.66;;;19.36;
46015;BME280;36844;51.898;-0.874;2023-09-19T11:58:11;99173.31;;;19.40;
46015;BME280;36844;51.898;-0.874;2023-09-19T12:00:39;99178.38;;;19.38;
46015;BME280;36844;51.898;-0.874;2023-09-19T12:03:08;99188.06;;;19.48;
46015;BME280;36844;51.898;-0.874;2023-09-19T12:05:37;99183.97;;;19.43;
46015;BME280;36844;51.898;-0.874;2023-09-19T12:08:07;99187.66;;;19.49;
46015;BME280;36844;51.898;-0.874;2023-09-19T12:10:48;99179.78;;;19.42;
46015;BME280;36844;51.898;-0.874;2023-09-19T12:13:18;99196.50;;;19.50;
46015;BME280;36844;51.898;-0.874;2023-09-19T12:15:44;99187.28;;;19.47;
46015;BME280;36844;51.898;-0.874;2023-09-19T12:18:26;99182.13;;;19.40;
46015;BME280;36844;51.898;-0.874;2023-09-19T12:20:52;99181.28;;;19.43;
46015;BME280;36844;51.898;-0.874;2023-09-19T12:23:17;99183.28;;;19.52;
46015;BME280;36844;51.898;-0.874;2023-09-19T12:25:44;99163.59;;;19.42;
46015;BME280;36844;51.898;-0.874;2023-09-19T12:28:12;99172.75;;;19.45;
46015;BME280;36844;51.898;-0.874;2023-09-19T12:30:38;99160.00;;;19.45;
46015;BME280;36844;51.898;-0.874;2023-09-19T12:33:16;99173.19;;;19.43;
46015;BME280;36844;51.898;-0.874;2023-09-19T12:35:41;99147.63;;;19.23;
46015;BME280;36844;51.898;-0.874;2023-09-19T12:38:10;99194.41;;;19.54;
46015;BME280;36844;51.898;-0.874;2023-09-19T12:40:36;99162.75;;;19.33;
46015;BME280;36844;51.898;-0.874;2023-09-19T12:43:03;99163.47;;;19.33;
46015;BME280;36844;51.898;-0.874;2023-09-19T12:45:33;99179.31;;;19.44;
46015;BME280;36844;51.898;-0.874;2023-09-19T12:48:19;99197.13;;;19.54;
46015;BME280;36844;51.898;-0.874;2023-09-19T12:51:07;99178.47;;;19.47;
46015;BME280;36844;51.898;-0.874;2023-09-19T12:53:39;99176.41;;;19.51;
46015;BME280;36844;51.898;-0.874;2023-09-19T12:56:10;99181.25;;;19.56;
46015;BME280;36844;51.898;-0.874;2023-09-19T12:58:52;99167.53;;;19.50;
46015;BME280;36844;51.898;-0.874;2023-09-19T13:01:19;99182.00;;;19.56;
46015;BME280;36844;51.898;-0.874;2023-09-19T13:03:45;99161.94;;;19.45;
46015;BME280;36844;51.898;-0.874;2023-09-19T13:06:11;99184.25;;;19.58;
46015;BME280;36844;51.898;-0.874;2023-09-19T13:08:38;99181.56;;;19.58;
46015;BME280;36844;51.898;-0.874;2023-09-19T13:11:17;99194.31;;;19.57;
46015;BME280;36844;51.898;-0.874;2023-09-19T13:17:05;99175.31;;;19.48;
46015;BME280;36844;51.898;-0.874;2023-09-19T13:19:45;99183.88;;;19.47;
46015;BME280;36844;51.898;-0.874;2023-09-19T13:22:42;99195.50;;;19.56;
46015;BME280;36844;51.898;-0.874;2023-09-19T13:25:11;99192.47;;;19.54;
46015;BME280;36844;51.898;-0.874;2023-09-19T13:27:51;99199.81;;;19.54;
46015;BME280;36844;51.898;-0.874;2023-09-19T13:30:18;99199.38;;;19.55;
46015;BME280;36844;51.898;-0.874;2023-09-19T13:32:44;99198.22;;;19.56;
46015;BME280;36844;51.898;-0.874;2023-09-19T13:35:09;99178.66;;;19.52;
46015;BME280;36844;51.898;-0.874;2023-09-19T13:37:36;99186.19;;;19.57;
46015;BME280;36844;51.898;-0.874;2023-09-19T13:40:05;99164.63;;;19.45;
46015;BME280;36844;51.898;-0.874;2023-09-19T13:42:31;99175.97;;;19.52;
46015;BME280;36844;51.898;-0.874;2023-09-19T13:44:57;99178.22;;;19.54;
46015;BME280;36844;51.898;-0.874;2023-09-19T13:47:22;99154.09;;;19.38;
46015;BME280;36844;51.898;-0.874;2023-09-19T13:49:50;99178.47;;;19.47;
46015;BME280;36844;51.898;-0.874;2023-09-19T13:52:18;99185.03;;;19.58;
46015;BME280;36844;51.898;-0.874;2023-09-19T13:54:44;99165.06;;;19.43;
46015;BME280;36844;51.898;-0.874;2023-09-19T13:57:09;99174.78;;;19.53;
46015;BME280;36844;51.898;-0.874;2023-09-19T13:59:35;99180.06;;;19.57;
46015;BME280;36844;51.898;-0.874;2023-09-19T14:02:00;99149.31;;;19.42;
46015;BME280;36844;51.898;-0.874;2023-09-19T14:04:26;99155.47;;;19.42;
46015;BME280;36844;51.898;-0.874;2023-09-19T14:06:53;99169.38;;;19.53;
46015;BME280;36844;51.898;-0.874;2023-09-19T14:09:19;99159.06;;;19.39;
46015;BME280;36844;51.898;-0.874;2023-09-19T14:11:45;99149.75;;;19.40;
46015;BME280;36844;51.898;-0.874;2023-09-19T14:14:12;99155.91;;;19.41;
46015;BME280;36844;51.898;-0.874;2023-09-19T14:16:38;99163.88;;;19.57;
46015;BME280;36844;51.898;-0.874;2023-09-19T14:19:04;99181.13;;;19.59;
46015;BME280;36844;51.898;-0.874;2023-09-19T14:21:30;99184.47;;;19.63;
46015;BME280;36844;51.898;-0.874;2023-09-19T14:23:55;99176.16;;;19.58;
46015;BME280;36844;51.898;-0.874;2023-09-19T14:26:21;99175.50;;;19.54;
46015;BME280;36844;51.898;-0.874;2023-09-19T14:28:48;99182.00;;;19.56;
46015;BME280;36844;51.898;-0.874;2023-09-19T14:31:13;99165.19;;;19.40;
46015;BME280;36844;51.898;-0.874;2023-09-19T14:33:40;99178.91;;;19.45;